createdAt,value
2022-09-10T00:01:24.443Z,12.94
2022-09-10T00:03:51.818Z,12.87
2022-09-10T00:06:19.512Z,12.86
2022-09-10T00:08:47.821Z,12.83
2022-09-10T00:11:15.191Z,12.86
2022-09-10T00:13:43.127Z,12.94
2022-09-10T00:16:14.279Z,12.91
2022-09-10T00:18:42.738Z,12.98
2022-09-10T00:21:14.345Z,13.03
2022-09-10T00:23:41.670Z,12.96
2022-09-10T00:26:16.532Z,13.03
2022-09-10T00:28:43.906Z,13.05
2022-09-10T00:31:11.295Z,13.00
2022-09-10T00:33:38.139Z,13.09
2022-09-10T00:36:23.672Z,13.01
2022-09-10T00:38:53.452Z,12.97
2022-09-10T00:41:22.741Z,12.91
2022-09-10T00:44:37.518Z,13.03
2022-09-10T00:47:26.797Z,13.08
2022-09-10T00:50:02.649Z,13.13
2022-09-10T00:52:29.515Z,13.05
2022-09-10T00:54:56.891Z,13.01
2022-09-10T00:57:25.607Z,13.01
2022-09-10T01:00:02.103Z,12.99
2022-09-10T01:02:28.863Z,13.02
2022-09-10T01:04:58.239Z,13.10
2022-09-10T01:07:29.367Z,13.10
2022-09-10T01:10:03.496Z,13.04
2022-09-10T01:12:48.429Z,13.08
2022-09-10T01:15:58.889Z,13.14
2022-09-10T01:18:40.974Z,13.20
2022-09-10T01:21:40.637Z,13.20
2022-09-10T01:24:45.295Z,13.19
2022-09-10T01:27:38.171Z,13.24
2022-09-10T01:30:46.867Z,13.18
2022-09-10T01:33:34.252Z,13.15
2022-09-10T01:36:06.952Z,13.16
2022-09-10T01:38:36.760Z,13.13
2022-09-10T01:41:04.451Z,13.14
2022-09-10T01:43:31.526Z,13.14
2022-09-10T01:46:35.276Z,13.20
2022-09-10T01:49:14.069Z,13.07
2022-09-10T01:52:06.905Z,13.16
2022-09-10T01:54:38.634Z,13.16
2022-09-10T01:58:01.511Z,13.16
2022-09-10T02:00:28.473Z,13.12
2022-09-10T02:03:16.450Z,13.17
2022-09-10T02:05:48.782Z,13.17
2022-09-10T02:08:23.519Z,13.19
2022-09-10T02:11:06.237Z,13.19
2022-09-10T02:13:34.656Z,13.16
2022-09-10T02:16:03.879Z,13.20
2022-09-10T02:18:35.468Z,13.24
2022-09-10T02:21:03.345Z,13.21
2022-09-10T02:23:56.562Z,13.30
2022-09-10T02:26:25.960Z,13.30
2022-09-10T02:28:52.858Z,13.23
2022-09-10T02:31:19.638Z,13.27
2022-09-10T02:33:46.470Z,13.09
2022-09-10T02:36:13.290Z,12.95
2022-09-10T02:38:40.513Z,12.85
2022-09-10T02:41:09.869Z,13.01
2022-09-10T02:43:38.307Z,13.12
2022-09-10T02:46:07.459Z,13.13
2022-09-10T02:48:34.283Z,12.99
2022-09-10T02:51:02.746Z,12.89
2022-09-10T02:53:31.754Z,12.93
2022-09-10T02:55:58.838Z,12.96
2022-09-10T02:58:25.609Z,12.89
2022-09-10T03:00:52.446Z,12.96
2022-09-10T03:03:19.519Z,13.08
2022-09-10T03:05:47.493Z,13.14
2022-09-10T03:08:14.267Z,13.14
2022-09-10T03:10:41.099Z,13.12
2022-09-10T03:13:08.234Z,13.11
2022-09-10T03:15:35.119Z,13.12
2022-09-10T03:18:01.865Z,13.03
2022-09-10T03:20:28.673Z,13.06
2022-09-10T03:22:55.497Z,13.10
2022-09-10T03:25:22.882Z,13.20
2022-09-10T03:27:49.719Z,13.32
2022-09-10T03:30:17.182Z,13.36
2022-09-10T03:32:44.328Z,13.37
2022-09-10T03:35:11.338Z,13.45
2022-09-10T03:37:38.054Z,13.49
2022-09-10T03:40:05.940Z,13.50
2022-09-10T03:42:32.905Z,13.47
2022-09-10T03:44:59.650Z,13.43
2022-09-10T03:47:26.364Z,13.48
2022-09-10T03:49:54.049Z,13.56
2022-09-10T03:52:22.848Z,13.55
2022-09-10T03:54:51.137Z,13.57
2022-09-10T03:57:18.318Z,13.61
2022-09-10T03:59:46.029Z,13.44
2022-09-10T04:02:12.824Z,13.32
2022-09-10T04:04:39.607Z,13.39
2022-09-10T04:07:07.205Z,13.49
2022-09-10T04:09:34.226Z,13.32
2022-09-10T04:12:00.953Z,13.41
2022-09-10T04:14:27.712Z,13.41
2022-09-10T04:16:54.711Z,13.47
2022-09-10T04:19:21.471Z,13.46
2022-09-10T04:21:48.662Z,13.52
2022-09-10T04:24:15.503Z,13.47
2022-09-10T04:26:42.312Z,13.47
2022-09-10T04:29:09.087Z,13.50
2022-09-10T04:31:35.850Z,13.47
2022-09-10T04:34:02.625Z,13.49
2022-09-10T04:36:29.348Z,13.48
2022-09-10T04:38:56.287Z,13.46
2022-09-10T04:41:23.046Z,13.49
2022-09-10T04:43:49.832Z,13.44
2022-09-10T04:46:17.745Z,13.32
2022-09-10T04:48:44.717Z,13.25
2022-09-10T04:51:17.475Z,13.02
2022-09-10T04:53:46.054Z,13.11
2022-09-10T04:56:13.684Z,13.10
2022-09-10T04:58:41.486Z,13.07
2022-09-10T05:01:08.574Z,12.97
2022-09-10T05:03:36.037Z,13.10
2022-09-10T05:06:03.899Z,13.21
2022-09-10T05:08:31.095Z,13.23
2022-09-10T05:10:58.305Z,13.24
2022-09-10T05:13:28.647Z,13.28
2022-09-10T05:15:55.407Z,13.27
2022-09-10T05:18:22.171Z,13.25
2022-09-10T05:20:48.886Z,13.27
2022-09-10T05:23:15.585Z,13.27
2022-09-10T05:25:44.612Z,13.37
2022-09-10T05:28:12.229Z,13.35
2022-09-10T05:30:39.006Z,13.35
2022-09-10T05:33:05.758Z,13.32
2022-09-10T05:35:33.455Z,13.33
2022-09-10T05:38:01.169Z,13.39
2022-09-10T05:40:28.982Z,13.30
2022-09-10T05:42:55.718Z,13.20
2022-09-10T05:45:23.565Z,13.22
2022-09-10T05:47:51.544Z,13.21
2022-09-10T05:50:18.767Z,13.28
2022-09-10T05:52:46.894Z,13.31
2022-09-10T05:55:13.848Z,13.27
2022-09-10T05:57:40.696Z,13.24
2022-09-10T06:00:09.392Z,13.25
2022-09-10T06:02:36.823Z,13.35
2022-09-10T06:05:04.144Z,13.36
2022-09-10T06:07:31.861Z,13.53
2022-09-10T06:09:58.629Z,13.58
2022-09-10T06:12:25.674Z,13.57
2022-09-10T06:14:52.942Z,13.65
2022-09-10T06:17:20.519Z,13.60
2022-09-10T06:19:47.349Z,13.62
2022-09-10T06:22:14.656Z,13.65
2022-09-10T06:24:42.336Z,13.52
2022-09-10T06:27:09.783Z,13.65
2022-09-10T06:29:36.930Z,13.58
2022-09-10T06:32:04.398Z,13.71
2022-09-10T06:34:31.509Z,13.78
2022-09-10T06:36:58.572Z,13.83
2022-09-10T06:39:25.363Z,13.76
2022-09-10T06:41:53.342Z,13.86
2022-09-10T06:44:22.496Z,13.87
2022-09-10T06:49:36.681Z,14.07
2022-09-10T06:52:03.869Z,14.22
2022-09-10T06:54:30.612Z,14.23
2022-09-10T06:56:58.184Z,14.29
2022-09-10T06:59:25.125Z,14.33
2022-09-10T07:01:52.015Z,14.50
2022-09-10T07:04:18.832Z,14.58
2022-09-10T07:06:46.723Z,14.65
2022-09-10T07:09:14.370Z,14.69
2022-09-10T07:11:41.857Z,14.65
2022-09-10T07:14:13.124Z,14.63
2022-09-10T07:16:41.664Z,14.72
2022-09-10T07:19:12.333Z,14.81
2022-09-10T07:21:39.498Z,14.64
2022-09-10T07:24:06.446Z,14.73
2022-09-10T07:26:33.431Z,14.64
2022-09-10T07:29:00.401Z,14.68
2022-09-10T07:31:35.656Z,14.78
2022-09-10T07:34:03.736Z,14.93
2022-09-10T07:36:30.659Z,15.04
2022-09-10T07:39:01.571Z,15.13
2022-09-10T07:41:30.132Z,15.21
2022-09-10T07:43:58.057Z,15.32
2022-09-10T07:46:25.790Z,14.96
2022-09-10T07:49:00.826Z,15.16
2022-09-10T07:51:30.411Z,15.28
2022-09-10T07:53:59.323Z,15.38
2022-09-10T07:56:26.713Z,15.49
2022-09-10T07:58:57.088Z,15.39
2022-09-10T08:01:24.209Z,15.39
2022-09-10T08:03:51.130Z,15.36
2022-09-10T08:06:18.470Z,15.40
2022-09-10T08:08:45.194Z,15.39
2022-09-10T08:11:16.721Z,15.25
2022-09-10T08:13:51.741Z,15.45
2022-09-10T08:16:23.966Z,15.61
2022-09-10T08:18:55.674Z,15.68
2022-09-10T08:21:22.507Z,15.77
2022-09-10T08:23:51.622Z,15.77
2022-09-10T08:26:18.997Z,15.76
2022-09-10T08:28:45.997Z,15.88
2022-09-10T08:31:13.050Z,15.83
2022-09-10T08:33:40.457Z,15.98
2022-09-10T08:36:10.626Z,16.02
2022-09-10T08:38:40.043Z,16.07
2022-09-10T08:41:32.621Z,16.17
2022-09-10T08:44:08.126Z,16.20
2022-09-10T08:46:44.527Z,16.15
2022-09-10T08:49:31.956Z,16.17
2022-09-10T08:52:11.686Z,16.01
2022-09-10T08:54:46.187Z,15.93
2022-09-10T08:57:45.287Z,15.80
2022-09-10T09:00:18.373Z,15.70
2022-09-10T09:02:49.663Z,15.81
2022-09-10T09:05:26.008Z,15.79
2022-09-10T09:07:53.342Z,15.96
2022-09-10T09:10:27.908Z,15.98
2022-09-10T09:13:22.838Z,16.15
2022-09-10T09:16:21.355Z,16.10
2022-09-10T09:19:23.597Z,16.18
2022-09-10T09:21:53.425Z,16.45
2022-09-10T09:24:39.787Z,16.44
2022-09-10T09:27:18.498Z,16.51
2022-09-10T09:30:01.299Z,16.66
2022-09-10T09:32:33.622Z,16.83
2022-09-10T09:35:11.727Z,16.75
2022-09-10T09:37:41.426Z,16.96
2022-09-10T09:40:26.548Z,16.92
2022-09-10T09:42:59.457Z,16.93
2022-09-10T09:45:40.318Z,16.87
2022-09-10T09:48:11.670Z,16.99
2022-09-10T09:50:43.779Z,17.08
2022-09-10T09:53:25.453Z,17.09
2022-09-10T09:56:04.874Z,16.92
2022-09-10T09:58:36.758Z,16.95
2022-09-10T10:01:03.558Z,17.06
2022-09-10T10:03:43.693Z,17.03
2022-09-10T10:06:12.491Z,16.80
2022-09-10T10:09:20.193Z,17.02
2022-09-10T10:11:55.277Z,16.94
2022-09-10T10:14:32.102Z,16.80
2022-09-10T10:17:00.965Z,16.77
2022-09-10T10:19:40.427Z,16.60
2022-09-10T10:22:18.726Z,16.69
2022-09-10T10:24:48.688Z,16.71
2022-09-10T10:27:30.458Z,16.52
2022-09-10T10:30:01.985Z,16.52
2022-09-10T10:32:42.190Z,16.62
2022-09-10T10:35:29.538Z,16.57
2022-09-10T10:38:25.322Z,16.73
2022-09-10T10:41:22.059Z,16.82
2022-09-10T10:44:13.390Z,17.10
2022-09-10T10:47:23.399Z,17.22
2022-09-10T10:50:12.910Z,17.21
2022-09-10T10:53:11.935Z,17.36
2022-09-10T10:55:45.547Z,17.01
2022-09-10T10:58:39.513Z,17.22
2022-09-10T11:01:37.536Z,17.36
2022-09-10T11:04:23.012Z,17.68
2022-09-10T11:07:10.820Z,17.76
2022-09-10T11:09:52.045Z,17.79
2022-09-10T11:12:38.928Z,17.89
2022-09-10T11:16:01.374Z,18.11
2022-09-10T11:18:38.075Z,18.03
2022-09-10T11:21:31.929Z,18.24
2022-09-10T11:24:18.896Z,18.64
2022-09-10T11:26:55.302Z,19.01
2022-09-10T11:29:50.053Z,19.43
2022-09-10T11:32:39.327Z,19.53
2022-09-10T11:35:35.345Z,19.82
2022-09-10T11:38:01.955Z,19.99
2022-09-10T11:40:43.835Z,19.86
2022-09-10T11:43:14.637Z,19.83
2022-09-10T11:45:53.332Z,19.98
2022-09-10T11:48:46.519Z,19.71
2022-09-10T11:51:24.344Z,19.62
2022-09-10T11:53:51.462Z,19.83
2022-09-10T11:57:01.138Z,19.76
2022-09-10T11:59:40.989Z,19.74
2022-09-10T12:02:26.473Z,19.71
2022-09-10T12:05:30.351Z,19.14
2022-09-10T12:08:30.777Z,18.72
2022-09-10T12:11:43.657Z,18.21
2022-09-10T12:14:19.702Z,18.32
2022-09-10T12:16:57.410Z,18.00
2022-09-10T12:19:29.815Z,18.19
2022-09-10T12:22:04.292Z,18.03
2022-09-10T12:24:38.089Z,18.13
2022-09-10T12:27:07.198Z,18.29
2022-09-10T12:29:40.752Z,18.42
2022-09-10T12:32:19.789Z,18.76
2022-09-10T12:34:48.553Z,19.03
2022-09-10T12:37:28.728Z,19.16
2022-09-10T12:40:26.613Z,19.17
2022-09-10T12:43:01.807Z,19.26
2022-09-10T12:46:08.919Z,19.47
2022-09-10T12:48:44.989Z,19.74
2022-09-10T12:51:20.626Z,19.77
2022-09-10T12:54:08.968Z,20.00
2022-09-10T12:56:57.641Z,20.21
2022-09-10T13:00:01.308Z,20.57
2022-09-10T13:02:34.329Z,20.85
2022-09-10T13:05:23.449Z,21.08
2022-09-10T13:08:07.351Z,20.96
2022-09-10T13:10:34.381Z,21.06
2022-09-10T13:13:05.510Z,21.16
2022-09-10T13:15:37.927Z,21.07
2022-09-10T13:18:29.909Z,20.90
2022-09-10T13:20:57.389Z,20.82
2022-09-10T13:23:47.958Z,20.97
2022-09-10T13:26:49.363Z,21.08
2022-09-10T13:29:55.892Z,21.13
2022-09-10T13:32:41.828Z,21.35
2022-09-10T13:35:17.369Z,21.44
2022-09-10T13:38:58.569Z,21.19
2022-09-10T13:41:56.949Z,21.51
2022-09-10T13:44:59.865Z,21.81
2022-09-10T13:47:41.035Z,21.76
2022-09-10T13:50:17.715Z,21.94
2022-09-10T13:52:48.105Z,22.13
2022-09-10T13:55:27.486Z,22.30
2022-09-10T13:58:18.007Z,22.54
2022-09-10T14:01:03.554Z,22.76
2022-09-10T14:03:37.090Z,23.01
2022-09-10T14:06:24.071Z,23.31
2022-09-10T14:08:57.868Z,23.43
2022-09-10T14:11:33.197Z,22.91
2022-09-10T14:14:21.124Z,23.17
2022-09-10T14:17:05.139Z,23.48
2022-09-10T14:19:47.373Z,23.51
2022-09-10T14:22:22.373Z,23.47
2022-09-10T14:24:59.936Z,23.29
2022-09-10T14:27:31.132Z,23.28
2022-09-10T14:30:36.679Z,23.38
2022-09-10T14:33:29.502Z,23.07
2022-09-10T14:35:58.208Z,22.99
2022-09-10T14:38:30.267Z,22.93
2022-09-10T14:41:08.659Z,22.80
2022-09-10T14:43:40.612Z,22.59
2022-09-10T14:46:10.284Z,23.22
2022-09-10T14:48:58.801Z,23.59
2022-09-10T14:51:25.988Z,23.77
2022-09-10T14:53:55.753Z,24.02
2022-09-10T14:56:44.348Z,23.89
2022-09-10T14:59:17.891Z,24.11
2022-09-10T15:01:48.426Z,24.01
2022-09-10T15:04:18.982Z,23.49
2022-09-10T15:06:45.734Z,23.05
2022-09-10T15:09:13.981Z,22.94
2022-09-10T15:12:05.408Z,23.81
2022-09-10T15:14:33.791Z,24.67
2022-09-10T15:17:00.706Z,24.77
2022-09-10T15:19:27.964Z,24.94
2022-09-10T15:21:54.791Z,24.41
2022-09-10T15:24:23.156Z,24.76
2022-09-10T15:26:50.584Z,24.20
2022-09-10T15:29:20.731Z,24.87
2022-09-10T15:31:47.537Z,24.36
2022-09-10T15:34:14.569Z,22.95
2022-09-10T15:36:41.909Z,22.59
2022-09-10T15:39:12.420Z,22.43
2022-09-10T15:41:44.324Z,22.10
2022-09-10T15:44:11.776Z,21.98
2022-09-10T15:46:45.451Z,21.89
2022-09-10T15:49:12.294Z,21.85
2022-09-10T15:51:39.396Z,21.75
2022-09-10T15:54:06.897Z,21.65
2022-09-10T15:56:33.873Z,21.56
2022-09-10T15:59:01.018Z,21.48
2022-09-10T16:01:29.056Z,21.24
2022-09-10T16:03:59.241Z,21.11
2022-09-10T16:06:31.654Z,20.98
2022-09-10T16:09:02.090Z,20.93
2022-09-10T16:11:31.267Z,20.89
2022-09-10T16:14:05.559Z,20.89
2022-09-10T16:16:34.894Z,20.86
2022-09-10T16:19:01.986Z,20.76
2022-09-10T16:21:32.212Z,20.73
2022-09-10T16:24:01.001Z,20.62
2022-09-10T16:26:37.059Z,20.63
2022-09-10T16:29:13.208Z,20.36
2022-09-10T16:31:40.326Z,20.27
2022-09-10T16:34:11.690Z,20.26
2022-09-10T16:36:39.600Z,20.11
2022-09-10T16:39:12.629Z,19.74
2022-09-10T16:41:40.625Z,19.90
2022-09-10T16:44:08.933Z,19.72
2022-09-10T16:46:35.773Z,19.56
2022-09-10T16:49:02.633Z,19.54
2022-09-10T16:51:29.405Z,19.50
2022-09-10T16:56:44.083Z,19.54
2022-09-10T16:59:23.454Z,19.58
2022-09-10T17:01:52.166Z,19.46
2022-09-10T17:04:27.546Z,19.11
2022-09-10T17:06:57.078Z,19.10
2022-09-10T17:09:25.006Z,18.99
2022-09-10T17:11:52.200Z,18.99
2022-09-10T17:14:19.442Z,18.84
2022-09-10T17:16:48.068Z,18.81
2022-09-10T17:19:19.573Z,18.88
2022-09-10T17:21:51.275Z,18.87
2022-09-10T17:24:20.980Z,18.64
2022-09-10T17:26:47.786Z,18.65
2022-09-10T17:29:19.030Z,18.75
2022-09-10T17:31:46.806Z,18.68
2022-09-10T17:34:17.814Z,18.72
2022-09-10T17:36:47.011Z,18.69
2022-09-10T17:39:14.915Z,18.60
2022-09-10T17:41:42.025Z,18.54
2022-09-10T17:44:11.387Z,18.59
2022-09-10T17:46:38.713Z,18.60
2022-09-10T17:49:06.556Z,18.56
2022-09-10T17:51:34.778Z,18.45
2022-09-10T17:54:03.396Z,18.32
2022-09-10T17:56:30.675Z,18.24
2022-09-10T17:59:01.696Z,18.23
2022-09-10T18:01:36.303Z,18.18
2022-09-10T18:04:04.306Z,18.15
2022-09-10T18:06:32.452Z,18.05
2022-09-10T18:09:03.010Z,17.84
2022-09-10T18:11:34.806Z,17.84
2022-09-10T18:14:02.067Z,17.72
2022-09-10T18:16:33.067Z,17.69
2022-09-10T18:19:04.278Z,17.55
2022-09-10T18:21:34.586Z,17.63
2022-09-10T18:24:07.725Z,17.55
2022-09-10T18:26:39.474Z,17.62
2022-09-10T18:29:13.896Z,17.60
2022-09-10T18:31:44.609Z,17.57
2022-09-10T18:34:19.564Z,17.55
2022-09-10T18:36:53.502Z,17.55
2022-09-10T18:39:20.933Z,17.54
2022-09-10T18:41:47.762Z,17.46
2022-09-10T18:44:21.865Z,17.49
2022-09-10T18:46:50.706Z,17.42
2022-09-10T18:49:21.524Z,17.46
2022-09-10T18:51:48.852Z,17.36
2022-09-10T18:54:17.333Z,17.30
2022-09-10T18:56:45.466Z,17.28
2022-09-10T18:59:17.079Z,17.25
2022-09-10T19:01:45.728Z,17.09
2022-09-10T19:04:16.949Z,17.18
2022-09-10T19:06:46.953Z,17.16
2022-09-10T19:09:20.254Z,17.17
2022-09-10T19:11:49.293Z,17.13
2022-09-10T19:14:26.204Z,17.14
2022-09-10T19:16:54.256Z,17.10
2022-09-10T19:19:24.608Z,16.90
2022-09-10T19:21:55.505Z,16.75
2022-09-10T19:24:44.064Z,16.76
2022-09-10T19:27:13.213Z,16.78
2022-09-10T19:29:43.163Z,16.68
2022-09-10T19:32:11.402Z,16.77
2022-09-10T19:34:39.098Z,16.74
2022-09-10T19:37:07.225Z,16.74
2022-09-10T19:39:34.130Z,16.54
2022-09-10T19:42:01.047Z,16.59
2022-09-10T19:44:28.117Z,16.56
2022-09-10T19:46:55.410Z,16.62
2022-09-10T19:49:22.381Z,16.51
2022-09-10T19:51:49.260Z,16.53
2022-09-10T19:54:16.360Z,16.58
2022-09-10T19:56:43.886Z,16.65
2022-09-10T19:59:10.728Z,16.55
2022-09-10T20:01:42.465Z,16.52
2022-09-10T20:04:12.193Z,16.53
2022-09-10T20:06:39.555Z,16.53
2022-09-10T20:09:08.816Z,16.57
2022-09-10T20:11:36.692Z,16.38
2022-09-10T20:14:08.113Z,16.34
2022-09-10T20:16:42.552Z,16.36
2022-09-10T20:19:13.193Z,16.34
2022-09-10T20:21:40.178Z,16.23
2022-09-10T20:24:07.809Z,16.27
2022-09-10T20:26:41.247Z,16.32
2022-09-10T20:29:12.605Z,16.25
2022-09-10T20:31:41.334Z,16.29
2022-09-10T20:34:15.877Z,16.29
2022-09-10T20:36:42.756Z,16.10
2022-09-10T20:39:11.775Z,16.26
2022-09-10T20:41:40.077Z,16.17
2022-09-10T20:44:07.624Z,16.22
2022-09-10T20:46:34.610Z,16.22
2022-09-10T20:49:04.818Z,16.17
2022-09-10T20:51:38.381Z,16.22
2022-09-10T20:54:10.041Z,16.15
2022-09-10T20:56:36.774Z,16.00
2022-09-10T20:59:03.522Z,16.06
2022-09-10T21:01:34.406Z,16.07
2022-09-10T21:04:04.210Z,16.03
2022-09-10T21:06:33.390Z,16.08
2022-09-10T21:09:02.680Z,16.02
2022-09-10T21:11:33.261Z,16.08
2022-09-10T21:14:03.266Z,16.04
2022-09-10T21:16:36.725Z,16.00
2022-09-10T21:19:07.987Z,15.99
2022-09-10T21:21:36.670Z,15.98
2022-09-10T21:24:07.521Z,15.87
2022-09-10T21:26:37.842Z,15.95
2022-09-10T21:29:08.037Z,15.93
2022-09-10T21:31:36.070Z,15.80
2022-09-10T21:34:03.689Z,15.86
2022-09-10T21:36:32.801Z,15.84
2022-09-10T21:39:02.649Z,15.82
2022-09-10T21:41:35.843Z,15.77
2022-09-10T21:44:07.053Z,15.69
2022-09-10T21:46:34.468Z,15.67
2022-09-10T21:49:02.414Z,15.61
2022-09-10T21:51:29.438Z,15.65
2022-09-10T21:53:58.224Z,15.62
2022-09-10T21:56:27.670Z,15.60
2022-09-10T21:58:56.711Z,15.45
2022-09-10T22:01:27.809Z,15.48
2022-09-10T22:04:02.943Z,15.49
2022-09-10T22:06:33.039Z,15.50
2022-09-10T22:09:05.172Z,15.47
2022-09-10T22:11:38.980Z,15.46
2022-09-10T22:14:18.248Z,15.46
2022-09-10T22:16:48.287Z,15.38
2022-09-10T22:19:22.656Z,15.34
2022-09-10T22:21:50.215Z,15.25
2022-09-10T22:24:20.325Z,15.21
2022-09-10T22:26:47.534Z,15.19
2022-09-10T22:29:18.567Z,15.13
2022-09-10T22:31:46.460Z,15.04
2022-09-10T22:34:15.396Z,15.05
2022-09-10T22:36:44.881Z,15.03
2022-09-10T22:39:16.878Z,15.00
2022-09-10T22:41:44.798Z,14.87
2022-09-10T22:44:12.382Z,14.95
2022-09-10T22:46:40.374Z,14.98
2022-09-10T22:49:07.945Z,15.02
2022-09-10T22:51:39.965Z,14.98
2022-09-10T22:54:07.914Z,14.66
2022-09-10T22:56:38.013Z,14.56
2022-09-10T22:59:06.499Z,14.41
2022-09-10T23:01:38.248Z,14.59
2022-09-10T23:04:07.481Z,14.68
2022-09-10T23:06:36.983Z,14.55
2022-09-10T23:09:11.884Z,14.53
2022-09-10T23:11:39.849Z,14.47
2022-09-10T23:14:19.163Z,14.37
2022-09-10T23:16:48.655Z,14.43
2022-09-10T23:19:24.923Z,14.51
2022-09-10T23:21:55.181Z,14.56
2022-09-10T23:24:24.938Z,14.58
2022-09-10T23:26:51.980Z,14.47
2022-09-10T23:29:18.941Z,14.46
2022-09-10T23:31:47.853Z,14.54
2022-09-10T23:34:17.960Z,14.65
2022-09-10T23:36:47.388Z,14.73
2022-09-10T23:39:18.214Z,14.79
2022-09-10T23:41:45.034Z,14.65
2022-09-10T23:44:12.524Z,14.66
2022-09-10T23:46:39.710Z,14.57
2022-09-10T23:49:07.609Z,14.75
2022-09-10T23:51:35.194Z,14.82
2022-09-10T23:54:01.975Z,14.84
2022-09-10T23:56:29.139Z,14.86
2022-09-10T23:58:59.327Z,14.87
